Time;durP1;ratioP1;P1;durP2;ratioP2;P2;SDS_P1;SDS_P2;PMS_P1;PMS_P2;Temp;Humidity;BMP_temperature;BMP_pressure;BME280_temperature;BME280_humidity;BME280_pressure;Samples;Min_cycle;Max_cycle;Signal;HPM_P1;HPM_P2
2022/05/25 00:00:49;;;;;;;0.00;0.00;;;20.20;67.90;;;;;;4210787;28;20123;-66
2022/05/25 00:03:11;;;;;;;2.00;0.32;;;20.20;67.00;;;;;;4210419;28;20044;-66
2022/05/25 00:05:35;;;;;;;0.00;0.00;;;20.20;67.00;;;;;;4210483;28;20409;-66
2022/05/25 00:07:59;;;;;;;0.35;0.35;;;20.20;67.10;;;;;;4199904;28;20483;-65
2022/05/25 00:10:21;;;;;;;0.00;0.00;;;20.10;67.00;;;;;;4193858;28;20402;-66
2022/05/25 00:12:44;;;;;;;0.00;0.00;;;20.10;67.00;;;;;;4204118;28;20445;-66
2022/05/25 00:15:08;;;;;;;0.00;0.00;;;20.10;67.10;;;;;;4193920;28;20044;-66
2022/05/25 00:17:29;;;;;;;0.00;0.00;;;20.10;67.10;;;;;;4210453;28;20072;-65
2022/05/25 00:19:59;;;;;;;0.00;0.00;;;20.10;67.10;;;;;;4208312;28;20127;-66
2022/05/25 00:22:21;;;;;;;0.00;0.00;;;20.10;67.10;;;;;;4209765;28;20048;-66
2022/05/25 00:24:45;;;;;;;0.00;0.00;;;20.10;67.20;;;;;;4210260;28;20131;-66
2022/05/25 00:27:07;;;;;;;0.00;0.00;;;20.10;67.20;;;;;;4221772;28;20047;-66
2022/05/25 00:29:28;;;;;;;0.10;0.10;;;20.10;67.20;;;;;;4226737;28;20035;-66
2022/05/25 00:31:51;;;;;;;0.00;0.00;;;20.10;67.30;;;;;;4218384;28;20070;-66
2022/05/25 00:34:13;;;;;;;0.38;0.38;;;20.10;67.30;;;;;;4221851;28;20067;-66
2022/05/25 00:36:36;;;;;;;0.22;0.22;;;20.00;67.20;;;;;;4227038;28;20040;-66
2022/05/25 00:38:58;;;;;;;0.00;0.00;;;20.10;67.30;;;;;;4227107;28;20043;-65
2022/05/25 00:41:25;;;;;;;0.00;0.00;;;20.10;67.30;;;;;;4226568;28;20483;-66
2022/05/25 00:43:47;;;;;;;0.00;0.00;;;20.00;67.30;;;;;;4195634;28;20045;-66
2022/05/25 00:46:14;;;;;;;0.00;0.00;;;20.00;67.30;;;;;;4177062;28;20049;-65
2022/05/25 00:48:39;;;;;;;0.00;0.00;;;20.00;67.30;;;;;;4176564;28;20396;-66
2022/05/25 00:51:15;;;;;;;1.08;1.08;;;20.00;67.30;;;;;;4175355;28;20040;-65
2022/05/25 00:53:37;;;;;;;0.00;0.00;;;20.00;67.30;;;;;;4176659;28;20048;-65
2022/05/25 00:56:00;;;;;;;0.00;0.00;;;20.00;67.30;;;;;;4176642;28;20084;-65
2022/05/25 00:58:24;;;;;;;0.00;0.00;;;20.00;67.40;;;;;;4175574;28;20527;-64
2022/05/25 01:00:46;;;;;;;0.05;0.05;;;20.00;67.40;;;;;;4176282;28;20044;-64
2022/05/25 01:03:11;;;;;;;0.00;0.00;;;20.00;67.50;;;;;;4196774;28;20041;-65
2022/05/25 01:05:42;;;;;;;0.00;0.00;;;19.90;67.40;;;;;;4215437;28;20399;-64
2022/05/25 01:08:15;;;;;;;0.00;0.00;;;20.00;67.50;;;;;;4227293;28;20122;-64
2022/05/25 01:10:48;;;;;;;0.00;0.00;;;20.00;67.50;;;;;;4226126;28;20775;-65
2022/05/25 01:13:19;;;;;;;0.10;0.10;;;19.90;67.50;;;;;;4206380;28;20406;-64
2022/05/25 01:15:52;;;;;;;1.02;0.98;;;19.90;67.50;;;;;;4192811;28;20048;-65
2022/05/25 01:18:24;;;;;;;0.00;0.00;;;19.90;67.50;;;;;;4193093;28;20053;-65
2022/05/25 01:20:50;;;;;;;0.00;0.00;;;19.90;67.60;;;;;;4207522;28;20052;-65
2022/05/25 01:23:51;;;;;;;0.00;0.00;;;19.90;67.60;;;;;;4208670;28;20487;-65
2022/05/25 01:26:29;;;;;;;0.10;0.10;;;19.90;67.70;;;;;;4183141;28;20067;-65
2022/05/25 01:29:13;;;;;;;0.55;0.25;;;19.90;67.80;;;;;;4193196;28;20075;-65
2022/05/25 01:31:45;;;;;;;0.55;0.55;;;19.80;67.70;;;;;;4193025;28;20052;-66
2022/05/25 01:34:10;;;;;;;;;;;19.90;67.80;;;;;;4196721;28;20059;-65
2022/05/25 01:36:40;;;;;;;0.65;0.65;;;19.80;67.70;;;;;;4196470;28;19924;-65
2022/05/25 01:39:08;;;;;;;0.00;0.00;;;19.80;67.80;;;;;;4195780;28;20114;-65
2022/05/25 01:41:35;;;;;;;0.00;0.00;;;19.80;67.80;;;;;;4212623;27;20313;-65
2022/05/25 01:44:01;;;;;;;0.03;0.03;;;19.80;67.90;;;;;;4216181;27;20487;-65
2022/05/25 01:46:26;;;;;;;0.00;0.00;;;19.80;67.90;;;;;;4230087;27;20539;-66
2022/05/25 01:48:52;;;;;;;0.00;0.00;;;19.80;67.90;;;;;;4229487;27;20508;-66
2022/05/25 01:51:19;;;;;;;0.88;0.88;;;19.80;68.00;;;;;;4228277;28;20449;-65
2022/05/25 01:53:46;;;;;;;0.30;0.30;;;19.80;68.00;;;;;;4228403;27;20398;-65
2022/05/25 01:56:10;;;;;;;0.00;0.00;;;19.80;68.00;;;;;;4229814;27;20043;-65
2022/05/25 01:58:36;;;;;;;0.00;0.00;;;19.80;68.00;;;;;;4229650;27;20055;-65
2022/05/25 02:01:00;;;;;;;0.00;0.00;;;19.80;68.00;;;;;;4229507;27;20452;-65
2022/05/25 02:06:30;;;;;;;0.00;0.00;;;19.80;68.10;;;;;;4195925;28;20044;-66
2022/05/25 02:09:11;;;;;;;0.08;0.08;;;19.80;68.10;;;;;;4195854;28;20109;-65
2022/05/25 02:11:36;;;;;;;0.00;0.00;;;19.80;68.10;;;;;;4195810;28;20044;-66
2022/05/25 02:14:05;;;;;;;0.00;0.00;;;19.70;68.00;;;;;;4211233;28;20131;-65
2022/05/25 02:16:37;;;;;;;0.00;0.00;;;19.70;68.00;;;;;;4212328;28;20040;-66
2022/05/25 02:19:06;;;;;;;0.00;0.00;;;19.70;68.00;;;;;;4212381;28;20048;-66
2022/05/25 02:21:35;;;;;;;0.25;0.20;;;19.70;68.10;;;;;;4212094;28;20055;-66
2022/05/25 02:24:02;;;;;;;0.00;0.00;;;19.70;68.10;;;;;;4208638;28;20058;-67
2022/05/25 02:26:28;;;;;;;0.00;0.00;;;19.70;68.10;;;;;;4212315;28;20144;-66
2022/05/25 02:29:00;;;;;;;0.00;0.00;;;19.70;68.10;;;;;;4212317;28;20044;-66
2022/05/25 02:31:26;;;;;;;0.00;0.00;;;19.70;69.00;;;;;;4211961;28;20093;-67
2022/05/25 02:33:51;;;;;;;0.00;0.00;;;19.70;68.10;;;;;;4195742;28;20131;-67
2022/05/25 02:36:14;;;;;;;0.00;0.00;;;19.70;68.20;;;;;;4195750;28;20099;-67
2022/05/25 02:38:39;;;;;;;0.00;0.00;;;19.70;68.10;;;;;;4195468;28;20427;-66
2022/05/25 02:41:07;;;;;;;0.10;0.10;;;19.70;68.20;;;;;;4209409;28;20058;-66
2022/05/25 02:43:29;;;;;;;0.10;0.10;;;19.60;68.10;;;;;;4211356;28;20069;-66
2022/05/25 02:45:51;;;;;;;0.00;0.00;;;19.60;68.10;;;;;;4196755;28;20055;-67
2022/05/25 02:48:13;;;;;;;0.00;0.00;;;19.60;68.10;;;;;;4212001;28;20071;-67
2022/05/25 02:50:36;;;;;;;0.00;0.00;;;19.60;68.10;;;;;;4211854;28;20503;-67
2022/05/25 02:52:58;;;;;;;0.10;0.10;;;19.60;68.10;;;;;;4209973;28;20090;-66
2022/05/25 02:55:21;;;;;;;0.20;0.20;;;19.60;68.10;;;;;;4194833;28;20102;-67
2022/05/25 02:57:44;;;;;;;0.00;0.00;;;19.60;68.20;;;;;;4195057;28;20131;-67
2022/05/25 03:00:08;;;;;;;0.00;0.00;;;19.60;68.20;;;;;;4207060;28;20044;-66
2022/05/25 03:02:30;;;;;;;0.00;0.00;;;19.60;68.20;;;;;;4210322;28;20051;-66
2022/05/25 03:04:52;;;;;;;0.10;0.10;;;19.60;68.30;;;;;;4211049;28;20048;-66
2022/05/25 03:07:14;;;;;;;0.00;0.00;;;19.60;68.30;;;;;;4211828;28;20039;-66
2022/05/25 03:09:37;;;;;;;0.05;0.05;;;19.60;68.30;;;;;;4203337;28;20067;-67
2022/05/25 03:12:02;;;;;;;0.00;0.00;;;19.60;68.30;;;;;;4195061;28;20051;-66
2022/05/25 03:14:24;;;;;;;0.00;0.00;;;19.50;68.20;;;;;;4210402;28;20059;-66
2022/05/25 03:16:46;;;;;;;0.00;0.00;;;19.50;68.20;;;;;;4194531;28;20485;-66
2022/05/25 03:19:08;;;;;;;0.20;0.20;;;19.60;68.40;;;;;;4198074;28;20044;-66
2022/05/25 03:21:30;;;;;;;0.00;0.00;;;19.60;68.30;;;;;;4211461;28;20135;-66
2022/05/25 03:23:52;;;;;;;0.10;0.10;;;19.60;68.40;;;;;;4210007;28;20062;-66
2022/05/25 03:26:14;;;;;;;0.00;0.00;;;19.50;68.30;;;;;;4211152;28;20044;-67
2022/05/25 03:28:37;;;;;;;0.00;0.00;;;19.50;68.40;;;;;;4211318;28;20090;-66
2022/05/25 03:31:00;;;;;;;0.00;0.00;;;19.50;68.40;;;;;;4177709;28;20053;-67
2022/05/25 03:33:22;;;;;;;0.00;0.00;;;19.50;68.40;;;;;;4178075;28;20064;-67
2022/05/25 03:35:44;;;;;;;0.00;0.00;;;19.50;68.40;;;;;;4177813;28;20067;-66
2022/05/25 03:38:07;;;;;;;0.00;0.00;;;19.50;68.50;;;;;;4210668;28;20044;-67
2022/05/25 03:40:29;;;;;;;0.00;0.00;;;19.50;68.50;;;;;;4204778;28;20045;-67
2022/05/25 03:42:52;;;;;;;0.00;0.00;;;19.50;68.50;;;;;;4194055;28;20049;-66
2022/05/25 03:45:17;;;;;;;0.00;0.00;;;19.50;68.40;;;;;;4194013;28;20044;-66
2022/05/25 03:47:42;;;;;;;0.08;0.08;;;19.50;69.30;;;;;;4194160;28;20050;-66
2022/05/25 03:50:05;;;;;;;0.10;0.10;;;19.40;68.40;;;;;;4193848;28;20122;-66
2022/05/25 03:52:28;;;;;;;0.00;0.00;;;19.40;68.40;;;;;;4194205;28;20048;-66
2022/05/25 03:54:50;;;;;;;0.20;0.20;;;19.50;69.30;;;;;;4193270;28;20107;-67
2022/05/25 03:57:12;;;;;;;0.35;0.35;;;19.40;68.40;;;;;;4219143;28;21084;-67
2022/05/25 03:59:34;;;;;;;0.70;0.63;;;19.40;68.40;;;;;;4226387;28;20043;-66
2022/05/25 04:01:57;;;;;;;0.00;0.00;;;19.40;68.40;;;;;;4227257;28;20138;-67
2022/05/25 04:04:19;;;;;;;0.00;0.00;;;19.40;68.50;;;;;;4225705;28;20036;-66
2022/05/25 04:06:41;;;;;;;0.00;0.00;;;19.40;68.50;;;;;;4227442;28;20051;-66
2022/05/25 04:09:05;;;;;;;0.00;0.00;;;19.40;68.50;;;;;;4227342;27;20067;-66
2022/05/25 04:11:27;;;;;;;0.00;0.00;;;19.40;68.60;;;;;;4227564;27;20478;-66
2022/05/25 04:13:50;;;;;;;0.00;0.00;;;19.40;68.50;;;;;;4196025;28;20048;-66
2022/05/25 04:16:12;;;;;;;8.60;1.23;;;19.40;68.40;;;;;;4193779;28;20114;-66
2022/05/25 04:18:35;;;;;;;0.40;0.40;;;19.40;68.40;;;;;;4193791;28;20050;-66
2022/05/25 04:20:57;;;;;;;0.00;0.00;;;19.40;68.40;;;;;;4193864;28;20048;-67
2022/05/25 04:23:20;;;;;;;0.00;0.00;;;19.40;68.40;;;;;;4182312;28;20137;-67
2022/05/25 04:25:43;;;;;;;0.00;0.00;;;19.40;68.40;;;;;;4210518;28;20044;-66
2022/05/25 04:28:05;;;;;;;0.10;0.10;;;19.40;68.40;;;;;;4210475;28;20047;-65
2022/05/25 04:30:29;;;;;;;0.20;0.20;;;19.40;68.30;;;;;;4210137;28;20479;-67
2022/05/25 04:32:51;;;;;;;0.82;0.82;;;19.40;68.30;;;;;;4209750;28;20052;-66
2022/05/25 04:35:16;;;;;;;0.00;0.00;;;19.40;68.30;;;;;;4184580;28;20107;-66
2022/05/25 04:37:52;;;;;;;0.00;0.00;;;19.40;68.30;;;;;;4193224;28;20048;-66
2022/05/25 04:40:15;;;;;;;0.00;0.00;;;19.40;68.30;;;;;;4192204;28;20449;-66
2022/05/25 04:42:37;;;;;;;0.88;0.88;;;19.40;68.30;;;;;;4196173;28;20387;-67
2022/05/25 04:45:00;;;;;;;0.00;0.00;;;19.40;68.30;;;;;;4176741;28;20382;-66
2022/05/25 04:47:23;;;;;;;0.00;0.00;;;19.40;68.30;;;;;;4176957;28;20127;-66
2022/05/25 04:49:45;;;;;;;0.00;0.00;;;19.40;68.30;;;;;;4176619;28;20044;-66
2022/05/25 04:52:09;;;;;;;0.00;0.00;;;19.40;68.30;;;;;;4177274;28;20049;-66
2022/05/25 04:54:31;;;;;;;1.20;0.65;;;19.40;68.30;;;;;;4202156;28;20052;-67
2022/05/25 04:59:37;;;;;;;0.13;0.13;;;19.40;68.30;;;;;;4226398;28;20047;-66
2022/05/25 05:02:00;;;;;;;0.00;0.00;;;19.40;68.40;;;;;;4221089;28;20048;-66
2022/05/25 05:04:22;;;;;;;1.17;1.15;;;19.40;68.40;;;;;;4192114;28;20131;-66
2022/05/25 05:06:44;;;;;;;0.00;0.00;;;19.40;68.30;;;;;;4195402;28;20045;-67
2022/05/25 05:09:08;;;;;;;0.43;0.43;;;19.40;68.40;;;;;;4196416;28;20052;-66
2022/05/25 05:11:29;;;;;;;0.00;0.00;;;19.50;68.50;;;;;;4210286;28;20135;-66
2022/05/25 05:13:51;;;;;;;0.00;0.00;;;19.50;68.40;;;;;;4197202;28;20052;-65
2022/05/25 05:16:16;;;;;;;0.05;0.05;;;19.50;68.30;;;;;;4214732;28;20430;-66
2022/05/25 05:18:44;;;;;;;1.10;0.80;;;19.50;68.10;;;;;;4228603;27;20077;-67
2022/05/25 05:21:15;;;;;;;0.22;0.22;;;19.50;68.10;;;;;;4230237;27;20100;-66
2022/05/25 05:23:39;;;;;;;0.00;0.00;;;19.50;68.00;;;;;;4226959;28;20059;-64
2022/05/25 05:26:02;;;;;;;2.30;1.55;;;19.50;68.30;;;;;;4230306;27;20039;-64
2022/05/25 05:28:30;;;;;;;3.50;1.55;;;19.50;68.30;;;;;;4229039;27;20093;-65
2022/05/25 05:30:54;;;;;;;0.00;0.00;;;19.50;68.20;;;;;;4228786;28;20050;-65
2022/05/25 05:33:17;;;;;;;5.82;1.55;;;19.60;68.00;;;;;;4230338;28;20050;-65
2022/05/25 05:35:39;;;;;;;0.32;0.32;;;19.60;67.70;;;;;;4229930;27;20147;-64
2022/05/25 05:38:01;;;;;;;0.13;0.13;;;19.60;67.40;;;;;;4229700;27;20043;-66
2022/05/25 05:40:24;;;;;;;1.48;1.40;;;19.70;67.10;;;;;;4226929;27;20586;-64
2022/05/25 05:42:50;;;;;;;0.52;0.35;;;19.70;66.70;;;;;;4222321;28;20126;-64
2022/05/25 05:45:15;;;;;;;0.00;0.00;;;19.80;66.40;;;;;;4212293;28;20073;-65
2022/05/25 05:47:42;;;;;;;0.10;0.10;;;19.80;66.10;;;;;;4213001;28;20051;-64
2022/05/25 05:50:06;;;;;;;0.00;0.00;;;19.80;65.90;;;;;;4178871;28;20049;-64
2022/05/25 05:52:28;;;;;;;1.55;0.45;;;19.80;65.90;;;;;;4187940;28;20044;-64
2022/05/25 05:54:50;;;;;;;0.10;0.10;;;19.80;65.90;;;;;;4194255;28;20135;-65
2022/05/25 05:57:14;;;;;;;0.03;0.03;;;19.80;65.80;;;;;;4195687;28;20098;-65
2022/05/25 05:59:38;;;;;;;0.10;0.10;;;19.80;65.80;;;;;;4195436;28;20072;-65
2022/05/25 06:02:00;;;;;;;0.08;0.08;;;19.80;65.80;;;;;;4195808;28;20052;-64
2022/05/25 06:04:23;;;;;;;0.35;0.35;;;19.80;65.70;;;;;;4195637;28;20039;-64
2022/05/25 06:06:45;;;;;;;0.00;0.00;;;19.80;65.70;;;;;;4195455;28;20044;-64
2022/05/25 06:09:07;;;;;;;0.00;0.00;;;19.80;66.60;;;;;;4196101;28;20055;-65
2022/05/25 06:11:29;;;;;;;0.08;0.08;;;19.70;66.50;;;;;;4196077;28;20790;-64
2022/05/25 06:13:52;;;;;;;0.22;0.22;;;19.70;65.60;;;;;;4195087;28;20053;-65
2022/05/25 06:21:35;;;;;;;0.00;0.00;;;19.70;65.70;;;;;;4212005;28;20290;-65
2022/05/25 06:23:58;;;;;;;6.40;1.83;;;19.70;65.70;;;;;;4212577;28;20044;-64
2022/05/25 06:26:20;;;;;;;0.00;0.00;;;19.70;65.70;;;;;;4212282;28;20079;-64
2022/05/25 06:28:43;;;;;;;0.00;0.00;;;19.70;66.70;;;;;;4211664;28;20094;-66
2022/05/25 06:31:05;;;;;;;0.00;0.00;;;19.70;65.80;;;;;;4212010;28;20040;-65
2022/05/25 06:33:29;;;;;;;0.03;0.03;;;19.70;65.80;;;;;;4212254;28;20127;-65
2022/05/25 06:35:57;;;;;;;0.00;0.00;;;19.70;66.60;;;;;;4211850;28;20137;-65
2022/05/25 06:38:19;;;;;;;0.00;0.00;;;19.80;65.60;;;;;;4212241;28;20052;-65
2022/05/25 06:40:41;;;;;;;1.15;0.55;;;19.80;65.50;;;;;;4202476;28;20044;-65
2022/05/25 06:43:04;;;;;;;0.00;0.00;;;19.80;65.30;;;;;;4205351;28;20106;-64
2022/05/25 06:45:26;;;;;;;0.03;0.03;;;19.80;65.20;;;;;;4193903;28;20399;-65
2022/05/25 06:47:48;;;;;;;0.00;0.00;;;19.90;65.20;;;;;;4178784;28;20530;-65
2022/05/25 06:50:12;;;;;;;0.00;0.00;;;19.90;65.10;;;;;;4178394;28;20048;-64
2022/05/25 06:52:34;;;;;;;0.00;0.00;;;20.00;65.00;;;;;;4177703;28;20487;-65
2022/05/25 06:54:57;;;;;;;3.53;1.88;;;20.10;64.90;;;;;;4178749;28;20064;-65
2022/05/25 06:57:19;;;;;;;0.20;0.20;;;20.10;64.60;;;;;;4193631;28;20048;-65
2022/05/25 06:59:42;;;;;;;0.00;0.00;;;20.20;64.30;;;;;;4195075;28;20040;-65
2022/05/25 07:02:04;;;;;;;0.00;0.00;;;20.20;64.90;;;;;;4194429;28;20075;-64
2022/05/25 07:04:27;;;;;;;0.00;0.00;;;20.30;63.70;;;;;;4194616;28;20040;-65
2022/05/25 07:06:54;;;;;;;0.00;0.00;;;20.40;63.60;;;;;;4204587;28;20093;-64
2022/05/25 07:09:16;;;;;;;0.00;0.00;;;20.40;63.70;;;;;;4197861;28;20044;-65
2022/05/25 07:11:38;;;;;;;0.22;0.22;;;20.50;63.00;;;;;;4195109;28;20052;-63
2022/05/25 07:14:01;;;;;;;4.90;2.40;;;20.60;63.10;;;;;;4194663;28;20431;-65
2022/05/25 07:16:23;;;;;;;0.20;0.20;;;20.60;62.80;;;;;;4203036;28;20036;-64
2022/05/25 07:18:47;;;;;;;3.35;1.58;;;20.70;62.70;;;;;;4210242;28;20044;-64
2022/05/25 07:21:12;;;;;;;0.00;0.00;;;20.70;62.50;;;;;;4211230;28;20051;-64
2022/05/25 07:23:43;;;;;;;0.00;0.00;;;20.70;62.20;;;;;;4201759;28;20127;-64
2022/05/25 07:26:07;;;;;;;8.82;3.28;;;20.80;61.80;;;;;;4177867;28;20111;-64
2022/05/25 07:28:28;;;;;;;0.05;0.05;;;20.70;61.60;;;;;;4204794;28;20048;-64
2022/05/25 07:30:53;;;;;;;0.00;0.00;;;20.80;61.50;;;;;;4176268;28;20623;-65
2022/05/25 07:33:15;;;;;;;0.52;0.17;;;20.80;61.40;;;;;;4177253;28;20044;-64
2022/05/25 07:35:38;;;;;;;0.10;0.10;;;20.80;61.30;;;;;;4178059;28;20053;-64
2022/05/25 07:38:01;;;;;;;0.55;0.55;;;20.80;61.30;;;;;;4177916;28;20102;-64
2022/05/25 07:40:29;;;;;;;0.30;0.30;;;20.80;61.40;;;;;;4178112;28;20092;-65
2022/05/25 07:42:56;;;;;;;0.43;0.43;;;20.70;61.30;;;;;;4183312;28;20131;-64
2022/05/25 07:45:19;;;;;;;5.88;1.55;;;20.70;61.20;;;;;;4210962;28;20044;-65
2022/05/25 07:47:41;;;;;;;0.10;0.10;;;20.80;61.30;;;;;;4210999;28;20542;-65
2022/05/25 07:50:05;;;;;;;5.63;1.30;;;20.80;62.10;;;;;;4210623;28;20039;-64
2022/05/25 07:52:31;;;;;;;0.13;0.13;;;20.80;61.10;;;;;;4211106;28;20472;-64
2022/05/25 07:54:56;;;;;;;0.52;0.52;;;20.80;61.90;;;;;;4210105;28;20051;-65
2022/05/25 07:57:19;;;;;;;0.20;0.20;;;20.80;60.90;;;;;;4194258;28;20422;-64
2022/05/25 07:59:42;;;;;;;0.28;0.28;;;20.70;60.80;;;;;;4193689;28;20044;-64
2022/05/25 08:07:31;;;;;;;0.00;0.00;;;20.80;60.70;;;;;;4192635;28;20070;-64
2022/05/25 08:09:57;;;;;;;0.30;0.30;;;20.80;60.60;;;;;;4209491;28;20139;-64
2022/05/25 08:12:20;;;;;;;0.00;0.00;;;20.80;61.40;;;;;;4210487;28;20032;-64
2022/05/25 08:14:42;;;;;;;0.00;0.00;;;20.80;60.30;;;;;;4209072;28;20161;-64
2022/05/25 08:17:06;;;;;;;0.00;0.00;;;20.80;60.10;;;;;;4210724;28;20135;-64
2022/05/25 08:19:28;;;;;;;0.20;0.20;;;20.80;60.10;;;;;;4210376;28;20048;-64
2022/05/25 08:21:51;;;;;;;0.60;0.60;;;20.80;59.90;;;;;;4210621;28;20081;-64
2022/05/25 08:24:14;;;;;;;0.08;0.08;;;20.80;59.70;;;;;;4210209;28;20067;-65
2022/05/25 08:26:36;;;;;;;0.05;0.05;;;20.80;59.60;;;;;;4210435;28;20131;-64
2022/05/25 08:29:00;;;;;;;0.00;0.00;;;20.80;59.40;;;;;;4196751;28;20501;-64
2022/05/25 08:31:22;;;;;;;0.45;0.45;;;20.80;59.30;;;;;;4193022;28;20051;-65
2022/05/25 08:33:45;;;;;;;0.00;0.00;;;20.80;59.30;;;;;;4193337;28;20045;-65
2022/05/25 08:36:06;;;;;;;0.00;0.00;;;20.90;59.20;;;;;;4193365;28;20487;-64
2022/05/25 08:38:28;;;;;;;0.00;0.00;;;20.90;59.80;;;;;;4193508;28;20135;-64
2022/05/25 08:40:52;;;;;;;0.00;0.00;;;20.90;59.10;;;;;;4193331;28;20057;-64
2022/05/25 08:43:19;;;;;;;0.00;0.00;;;20.90;59.00;;;;;;4193070;28;20044;-65
2022/05/25 08:45:46;;;;;;;0.13;0.13;;;20.90;58.90;;;;;;4192778;28;20048;-65
2022/05/25 08:48:11;;;;;;;0.30;0.28;;;20.90;58.80;;;;;;4193493;28;20044;-65
2022/05/25 08:50:34;;;;;;;0.00;0.00;;;20.90;58.60;;;;;;4192642;28;20483;-65
2022/05/25 08:52:59;;;;;;;0.00;0.00;;;20.90;58.40;;;;;;4194868;28;20492;-64
2022/05/25 08:55:36;;;;;;;0.00;0.00;;;20.90;58.10;;;;;;4193312;28;20044;-64
2022/05/25 08:58:00;;;;;;;0.10;0.10;;;21.00;58.70;;;;;;4191878;28;20086;-64
2022/05/25 09:00:23;;;;;;;0.40;0.40;;;21.00;57.90;;;;;;4209960;28;20055;-64
2022/05/25 09:02:54;;;;;;;0.00;0.00;;;21.00;57.80;;;;;;4210527;28;20052;-64
2022/05/25 09:05:21;;;;;;;0.00;0.00;;;21.00;57.70;;;;;;4209932;28;20076;-64
2022/05/25 09:07:49;;;;;;;0.45;0.45;;;21.10;57.60;;;;;;4209542;28;20097;-65
2022/05/25 09:10:15;;;;;;;4.47;1.58;;;21.10;57.40;;;;;;4210091;28;20044;-65
2022/05/25 09:12:42;;;;;;;0.00;0.00;;;21.10;57.30;;;;;;4209665;28;20394;-64
2022/05/25 09:15:09;;;;;;;0.00;0.00;;;21.10;57.20;;;;;;4209916;28;20558;-64
2022/05/25 09:17:35;;;;;;;0.15;0.15;;;21.10;57.10;;;;;;4209941;28;20036;-64
2022/05/25 09:20:00;;;;;;;0.00;0.00;;;21.10;57.00;;;;;;4209254;28;20076;-65
2022/05/25 09:22:30;;;;;;;0.00;0.00;;;21.10;56.90;;;;;;4210016;28;21692;-64
2022/05/25 09:24:55;;;;;;;0.00;0.00;;;21.10;56.90;;;;;;4210089;28;20522;-64
2022/05/25 09:27:22;;;;;;;0.30;0.30;;;21.10;56.80;;;;;;4209769;28;20052;-64
2022/05/25 09:29:44;;;;;;;0.00;0.00;;;21.10;56.90;;;;;;4210160;28;20105;-65
2022/05/25 09:32:16;;;;;;;0.00;0.00;;;21.00;56.80;;;;;;4210124;28;20075;-65
2022/05/25 09:34:42;;;;;;;0.00;0.00;;;21.00;57.00;;;;;;4208076;28;20044;-64
2022/05/25 09:37:12;;;;;;;0.00;0.00;;;21.00;57.10;;;;;;4209370;28;20047;-64
2022/05/25 09:39:39;;;;;;;0.20;0.20;;;21.00;57.20;;;;;;4209996;28;20040;-64
2022/05/25 09:42:04;;;;;;;0.00;0.00;;;21.00;57.30;;;;;;4207801;28;20564;-65
2022/05/25 09:44:28;;;;;;;0.00;0.00;;;21.10;57.30;;;;;;4208331;28;20044;-64
2022/05/25 09:46:54;;;;;;;0.00;0.00;;;21.10;57.30;;;;;;4191483;28;20487;-65
2022/05/25 09:49:30;;;;;;;0.00;0.00;;;21.00;57.30;;;;;;4192533;28;20071;-64
2022/05/25 09:51:55;;;;;;;1.27;1.23;;;21.10;57.40;;;;;;4192926;28;20091;-64
2022/05/25 09:54:25;;;;;;;0.00;0.00;;;21.00;57.30;;;;;;4195813;28;20079;-64
2022/05/25 09:56:53;;;;;;;0.00;0.00;;;21.10;57.30;;;;;;4195578;28;20063;-64
2022/05/25 09:59:23;;;;;;;0.00;0.00;;;21.10;57.40;;;;;;4194487;28;20040;-65
2022/05/25 10:01:48;;;;;;;0.52;0.52;;;21.00;57.10;;;;;;4195946;28;20060;-66
2022/05/25 10:04:12;;;;;;;0.43;0.43;;;21.00;57.00;;;;;;4195452;28;20410;-65
2022/05/25 10:06:49;;;;;;;0.00;0.00;;;21.00;57.00;;;;;;4194710;28;20242;-64
2022/05/25 10:09:16;;;;;;;0.20;0.20;;;21.00;56.90;;;;;;4195321;28;20361;-65
2022/05/25 10:11:45;;;;;;;0.00;0.00;;;21.00;56.90;;;;;;4195646;28;20052;-65
2022/05/25 10:14:25;;;;;;;0.28;0.25;;;21.00;57.00;;;;;;4195545;28;20395;-65
2022/05/25 10:16:47;;;;;;;0.00;0.00;;;21.00;57.10;;;;;;4198386;28;20484;-63
2022/05/25 10:19:12;;;;;;;0.00;0.00;;;21.10;57.10;;;;;;4195584;28;20080;-64
2022/05/25 10:21:38;;;;;;;0.20;0.20;;;21.00;57.10;;;;;;4194051;28;20068;-64
2022/05/25 10:24:04;;;;;;;0.00;0.00;;;21.00;57.10;;;;;;4195278;28;20048;-64
2022/05/25 10:26:39;;;;;;;0.00;0.00;;;21.00;56.90;;;;;;4195700;28;20072;-64
2022/05/25 10:29:08;;;;;;;0.00;0.00;;;21.00;56.80;;;;;;4195026;28;20136;-65
2022/05/25 10:37:12;;;;;;;0.00;0.00;;;20.90;57.00;;;;;;4194972;28;20098;-64
2022/05/25 10:39:36;;;;;;;0.00;0.00;;;20.90;57.10;;;;;;4194986;28;20045;-64
2022/05/25 10:42:00;;;;;;;0.00;0.00;;;20.90;57.10;;;;;;4194872;28;20588;-64
2022/05/25 10:44:26;;;;;;;0.00;0.00;;;20.90;57.10;;;;;;4194982;28;20044;-65
2022/05/25 10:46:54;;;;;;;0.00;0.00;;;20.90;57.10;;;;;;4195342;28;20124;-64
2022/05/25 10:49:21;;;;;;;0.00;0.00;;;20.90;57.10;;;;;;4193313;28;20053;-64
2022/05/25 10:51:48;;;;;;;0.00;0.00;;;20.90;57.20;;;;;;4194796;28;20044;-65
2022/05/25 10:57:17;;;;;;;0.00;0.00;;;20.90;57.30;;;;;;4211957;28;20101;-64
2022/05/25 10:59:48;;;;;;;0.00;0.00;;;20.90;57.40;;;;;;4211350;28;20505;-64
2022/05/25 11:02:26;;;;;;;0.00;0.00;;;20.80;57.40;;;;;;4211283;28;20379;-65
2022/05/25 11:05:03;;;;;;;0.10;0.10;;;20.90;57.30;;;;;;4210912;28;20054;-64
2022/05/25 11:07:32;;;;;;;0.00;0.00;;;20.80;57.20;;;;;;4194830;28;20097;-64
2022/05/25 11:10:09;;;;;;;0.00;0.00;;;20.80;57.10;;;;;;4194702;28;20052;-64
2022/05/25 11:12:39;;;;;;;0.00;0.00;;;20.80;57.00;;;;;;4208286;28;20128;-64
2022/05/25 11:15:14;;;;;;;0.00;0.00;;;20.80;57.10;;;;;;4203865;28;20460;-65
2022/05/25 11:18:07;;;;;;;0.00;0.00;;;20.80;57.10;;;;;;4221903;28;20051;-63
2022/05/25 11:20:35;;;;;;;0.00;0.00;;;20.80;57.10;;;;;;4196606;28;20044;-64
2022/05/25 11:23:20;;;;;;;0.00;0.00;;;20.80;57.10;;;;;;4194394;28;20383;-64
2022/05/25 11:26:00;;;;;;;0.00;0.00;;;20.70;57.00;;;;;;4193144;28;20047;-64
2022/05/25 11:28:51;;;;;;;0.00;0.00;;;20.80;57.00;;;;;;4210190;28;20071;-64
2022/05/25 11:31:25;;;;;;;0.00;0.00;;;20.70;57.00;;;;;;4211185;28;20044;-64
2022/05/25 11:34:02;;;;;;;0.10;0.10;;;20.70;57.00;;;;;;4194347;28;20352;-64
2022/05/25 11:37:02;;;;;;;0.00;0.00;;;20.70;57.10;;;;;;4208690;28;20410;-64
2022/05/25 11:39:32;;;;;;;0.00;0.00;;;20.70;57.30;;;;;;4210441;28;20098;-64
2022/05/25 11:42:05;;;;;;;0.00;0.00;;;20.60;57.40;;;;;;4210699;28;20044;-64
2022/05/25 11:44:45;;;;;;;0.13;0.13;;;20.60;57.50;;;;;;4210468;28;20048;-64
2022/05/25 11:47:23;;;;;;;0.05;0.05;;;20.60;57.50;;;;;;4196973;28;20462;-64
2022/05/25 11:49:55;;;;;;;0.30;0.30;;;20.70;57.50;;;;;;4196671;28;20095;-64
2022/05/25 11:52:46;;;;;;;0.00;0.00;;;20.70;57.60;;;;;;4193972;28;20106;-64
2022/05/25 11:55:14;;;;;;;0.52;0.52;;;20.70;57.80;;;;;;4196527;28;20173;-63
2022/05/25 11:57:45;;;;;;;0.00;0.00;;;20.70;58.00;;;;;;4192705;28;20045;-64
2022/05/25 12:00:15;;;;;;;0.00;0.00;;;20.70;58.10;;;;;;4193705;28;20074;-63
2022/05/25 12:02:57;;;;;;;0.00;0.00;;;20.70;58.20;;;;;;4193945;28;20041;-64
2022/05/25 12:05:25;;;;;;;0.00;0.00;;;20.70;58.30;;;;;;4193399;28;20206;-65
2022/05/25 12:08:04;;;;;;;0.00;0.00;;;20.80;58.40;;;;;;4196787;28;20082;-63
2022/05/25 12:10:32;;;;;;;0.00;0.00;;;20.80;58.40;;;;;;4193723;28;20450;-64
2022/05/25 12:12:59;;;;;;;0.00;0.00;;;20.80;58.50;;;;;;4193431;28;20051;-64
2022/05/25 12:15:26;;;;;;;0.00;0.00;;;20.80;58.50;;;;;;4193512;28;20048;-63
2022/05/25 12:18:14;;;;;;;0.00;0.00;;;20.70;58.40;;;;;;4193494;28;20094;-64
2022/05/25 12:20:40;;;;;;;0.00;0.00;;;20.80;58.20;;;;;;4193602;28;20052;-64
2022/05/25 12:23:05;;;;;;;0.20;0.20;;;20.70;57.90;;;;;;4193663;28;20048;-64
2022/05/25 12:25:27;;;;;;;0.05;0.05;;;20.80;57.60;;;;;;4193565;28;20048;-64
2022/05/25 12:27:54;;;;;;;0.10;0.10;;;20.80;57.50;;;;;;4193586;28;20086;-64
2022/05/25 12:30:20;;;;;;;0.00;0.00;;;20.80;57.40;;;;;;4193800;28;20113;-64
2022/05/25 12:32:43;;;;;;;0.10;0.10;;;20.80;57.30;;;;;;4193476;28;20441;-65
2022/05/25 12:35:09;;;;;;;0.00;0.00;;;20.80;57.10;;;;;;4210538;28;20050;-65
2022/05/25 12:37:39;;;;;;;0.32;0.25;;;20.80;57.00;;;;;;4210389;28;20039;-65
2022/05/25 12:40:04;;;;;;;0.00;0.00;;;20.90;56.90;;;;;;4208580;28;20094;-66
2022/05/25 12:42:41;;;;;;;0.00;0.00;;;20.90;56.90;;;;;;4210083;28;20051;-65
2022/05/25 12:50:42;;;;;;;0.30;0.30;;;20.90;56.80;;;;;;4202432;28;20114;-64
2022/05/25 12:53:21;;;;;;;0.00;0.00;;;21.00;56.80;;;;;;4209372;28;20101;-64
2022/05/25 12:55:44;;;;;;;0.00;0.00;;;21.00;56.80;;;;;;4210113;28;20066;-66
2022/05/25 12:58:06;;;;;;;0.35;0.35;;;21.00;57.00;;;;;;4203984;28;20089;-66
2022/05/25 13:00:39;;;;;;;0.00;0.00;;;21.00;57.00;;;;;;4194451;28;20051;-66
2022/05/25 13:03:15;;;;;;;0.00;0.00;;;21.10;56.90;;;;;;4193154;28;20076;-65
2022/05/25 13:05:59;;;;;;;0.10;0.10;;;21.10;56.90;;;;;;4192900;28;20479;-66
2022/05/25 13:09:09;;;;;;;0.00;0.00;;;21.10;56.80;;;;;;4208834;28;20384;-71
2022/05/25 13:11:36;;;;;;;0.10;0.10;;;21.10;56.70;;;;;;4226788;28;20056;-71
2022/05/25 13:13:59;;;;;;;0.00;0.00;;;21.10;56.60;;;;;;4194664;28;20477;-71